createdAt,value
2022-08-17T00:02:25.896Z,11.68
2022-08-17T00:07:29.441Z,14.13
2022-08-17T00:12:43.155Z,16.38
2022-08-17T00:17:49.947Z,12.43
2022-08-17T00:23:03.565Z,15.02
2022-08-17T00:28:07.596Z,13.98
2022-08-17T00:33:16.232Z,11.48
2022-08-17T00:38:20.015Z,11.93
2022-08-17T00:43:30.769Z,14.93
2022-08-17T00:48:35.800Z,11.02
2022-08-17T00:53:43.333Z,10.43
2022-08-17T00:58:46.181Z,12.98
2022-08-17T01:03:51.901Z,10.75
2022-08-17T01:08:57.790Z,10.63
2022-08-17T01:14:00.778Z,10.32
2022-08-17T01:19:08.569Z,11.13
2022-08-17T01:24:12.806Z,12.43
2022-08-17T01:29:16.537Z,11.90
2022-08-17T01:34:20.590Z,13.10
2022-08-17T01:39:32.967Z,15.48
2022-08-17T01:44:36.242Z,10.70
2022-08-17T01:49:41.323Z,10.65
2022-08-17T01:54:48.616Z,11.82
2022-08-17T01:59:51.385Z,12.90
2022-08-17T02:04:54.206Z,12.85
2022-08-17T02:09:58.585Z,11.52
2022-08-17T02:15:02.718Z,10.88
2022-08-17T02:20:07.373Z,13.50
2022-08-17T02:25:14.207Z,10.88
2022-08-17T02:31:00.252Z,10.32
2022-08-17T02:35:40.435Z,13.20
2022-08-17T02:40:44.627Z,10.55
2022-08-17T02:45:48.037Z,11.25
2022-08-17T02:50:50.973Z,11.00
2022-08-17T02:55:55.155Z,9.88
2022-08-17T03:00:57.987Z,10.23
2022-08-17T03:06:01.966Z,11.40
2022-08-17T03:11:06.413Z,13.07
2022-08-17T03:16:09.793Z,13.07
2022-08-17T03:21:12.617Z,12.02
2022-08-17T03:26:16.802Z,12.10
2022-08-17T03:31:21.442Z,11.88
2022-08-17T03:36:24.308Z,9.52
2022-08-17T03:41:28.478Z,11.38
2022-08-17T03:46:48.791Z,15.40
2022-08-17T03:52:09.102Z,11.50
2022-08-17T03:57:14.057Z,10.40
2022-08-17T04:02:20.239Z,9.93
2022-08-17T04:07:27.466Z,10.45
2022-08-17T04:12:44.682Z,9.82
2022-08-17T04:17:47.684Z,9.15
2022-08-17T04:22:58.565Z,9.70
2022-08-17T04:28:03.884Z,9.80
2022-08-17T04:33:13.991Z,11.05
2022-08-17T04:38:19.473Z,10.02
2022-08-17T04:43:25.302Z,11.30
2022-08-17T04:48:36.010Z,12.07
2022-08-17T04:53:41.131Z,12.77
2022-08-17T04:58:47.808Z,12.50
2022-08-17T05:03:50.715Z,9.27
2022-08-17T05:08:54.798Z,14.13
2022-08-17T05:14:00.133Z,14.50
2022-08-17T05:19:02.981Z,10.05
2022-08-17T05:24:10.994Z,12.10
2022-08-17T05:29:33.570Z,10.85
2022-08-17T05:34:38.233Z,9.07
2022-08-17T05:39:41.727Z,10.45
2022-08-17T05:44:45.971Z,11.60
2022-08-17T05:49:48.965Z,11.20
2022-08-17T05:55:04.393Z,13.25
2022-08-17T06:00:17.021Z,12.73
2022-08-17T06:05:37.095Z,11.88
2022-08-17T06:10:46.500Z,12.30
2022-08-17T06:16:03.802Z,11.68
2022-08-17T06:21:08.862Z,13.35
2022-08-17T06:26:17.104Z,12.10
2022-08-17T06:31:29.248Z,16.15
2022-08-17T06:36:49.444Z,12.27
2022-08-17T06:42:02.237Z,14.63
2022-08-17T06:47:12.462Z,11.40
2022-08-17T06:52:37.199Z,10.70
2022-08-17T06:57:52.718Z,13.82
2022-08-17T07:03:03.182Z,12.13
2022-08-17T07:08:12.625Z,17.33
2022-08-17T07:13:25.663Z,11.65
2022-08-17T07:18:33.116Z,9.43
2022-08-17T07:23:49.777Z,9.32
2022-08-17T07:28:52.781Z,10.93
2022-08-17T07:34:14.427Z,8.70
2022-08-17T07:39:27.827Z,7.23
2022-08-17T07:44:30.954Z,8.68
2022-08-17T07:49:40.440Z,9.77
2022-08-17T07:54:43.915Z,8.00
2022-08-17T08:00:19.518Z,7.28
2022-08-17T08:05:50.632Z,6.90
2022-08-17T08:11:01.477Z,10.48
2022-08-17T08:16:24.222Z,7.82
2022-08-17T08:21:41.767Z,10.07
2022-08-17T08:26:55.488Z,7.22
2022-08-17T08:32:08.280Z,13.68
2022-08-17T08:37:32.612Z,9.85
2022-08-17T08:42:45.557Z,9.25
2022-08-17T08:48:12.709Z,8.95
2022-08-17T08:53:36.532Z,9.02
2022-08-17T08:58:50.532Z,6.70
2022-08-17T09:04:25.270Z,10.98
2022-08-17T09:09:42.127Z,6.95
2022-08-17T09:14:52.634Z,7.28
2022-08-17T09:20:02.106Z,7.72
2022-08-17T09:25:11.055Z,8.82
2022-08-17T09:30:14.769Z,6.63
2022-08-17T09:35:22.810Z,10.27
2022-08-17T09:40:33.600Z,9.60
2022-08-17T09:45:43.702Z,7.22
2022-08-17T09:51:05.422Z,5.95
2022-08-17T09:56:31.629Z,8.73
2022-08-17T10:01:39.928Z,5.90
2022-08-17T10:06:52.618Z,5.15
2022-08-17T10:12:20.424Z,4.75
2022-08-17T10:17:31.146Z,4.60
2022-08-17T10:22:59.354Z,7.13
2022-08-17T10:28:19.786Z,4.15
2022-08-17T10:33:27.859Z,8.23
2022-08-17T10:38:47.052Z,9.85
2022-08-17T10:44:37.923Z,7.55
2022-08-17T10:49:35.799Z,5.18
2022-08-17T10:55:06.372Z,3.47
2022-08-17T11:00:15.921Z,6.40
2022-08-17T11:05:45.572Z,4.18
2022-08-17T11:11:07.581Z,5.38
2022-08-17T11:16:28.697Z,4.43
2022-08-17T11:21:59.394Z,3.47
2022-08-17T11:27:07.664Z,5.72
2022-08-17T11:32:36.956Z,4.72
2022-08-17T11:37:51.543Z,6.20
2022-08-17T11:43:25.323Z,4.20
2022-08-17T11:48:54.870Z,4.07
2022-08-17T11:54:28.934Z,4.90
2022-08-17T12:00:00.312Z,3.40
2022-08-17T12:05:27.262Z,6.03
2022-08-17T12:10:34.274Z,3.45
2022-08-17T12:15:42.290Z,4.47
2022-08-17T12:20:56.667Z,10.05
2022-08-17T12:26:05.875Z,4.47
2022-08-17T12:31:17.018Z,4.60
2022-08-17T12:36:25.900Z,4.13
2022-08-17T12:41:40.313Z,3.65
2022-08-17T12:46:51.290Z,3.50
2022-08-17T12:52:02.956Z,4.17
2022-08-17T12:57:15.714Z,5.00
2022-08-17T13:02:42.396Z,3.78
2022-08-17T13:07:47.618Z,7.10
2022-08-17T13:12:56.077Z,8.50
2022-08-17T13:18:07.726Z,3.83
2022-08-17T13:23:20.973Z,7.80
2022-08-17T13:28:35.547Z,3.55
2022-08-17T13:33:44.793Z,7.75
2022-08-17T13:38:51.124Z,10.48
2022-08-17T13:43:54.021Z,7.53
2022-08-17T13:49:03.001Z,5.40
2022-08-17T13:54:24.710Z,3.83
2022-08-17T13:59:55.309Z,4.07
2022-08-17T14:05:00.508Z,6.83
2022-08-17T14:10:09.056Z,4.85
2022-08-17T14:15:13.658Z,5.40
2022-08-17T14:20:19.932Z,3.90
2022-08-17T14:25:27.604Z,3.95
2022-08-17T14:30:30.824Z,3.53
2022-08-17T14:35:34.403Z,3.88
2022-08-17T14:40:39.206Z,5.65
2022-08-17T14:45:42.752Z,7.50
2022-08-17T14:50:46.365Z,7.40
2022-08-17T14:55:52.537Z,4.18
2022-08-17T15:00:55.410Z,4.40
2022-08-17T15:05:58.565Z,3.97
2022-08-17T15:11:04.691Z,4.85
2022-08-17T15:16:08.625Z,7.22
2022-08-17T15:21:11.635Z,3.65
2022-08-17T15:26:16.826Z,4.13
2022-08-17T15:31:20.065Z,3.92
2022-08-17T15:36:35.147Z,5.10
2022-08-17T15:41:39.402Z,3.83
2022-08-17T15:46:43.163Z,3.05
2022-08-17T15:51:46.474Z,3.60
2022-08-17T15:56:50.774Z,3.50
2022-08-17T16:03:13.250Z,2.90
2022-08-17T16:07:20.914Z,2.78
2022-08-17T16:12:29.165Z,2.92
2022-08-17T16:17:39.901Z,2.92
2022-08-17T16:22:45.758Z,3.03
2022-08-17T16:27:53.797Z,3.65
2022-08-17T16:32:58.677Z,3.25
2022-08-17T16:38:02.729Z,3.08
2022-08-17T16:43:10.723Z,2.53
2022-08-17T16:48:15.356Z,3.28
2022-08-17T16:53:20.157Z,3.20
2022-08-17T16:58:24.482Z,3.78
2022-08-17T17:03:30.210Z,3.75
2022-08-17T17:08:42.097Z,3.05
2022-08-17T17:13:54.090Z,3.30
2022-08-17T17:19:09.077Z,3.95
2022-08-17T17:24:17.922Z,3.28
2022-08-17T17:29:47.370Z,3.20
2022-08-17T17:34:56.069Z,4.57
2022-08-17T17:40:02.957Z,3.20
2022-08-17T17:45:15.923Z,3.35
2022-08-17T17:50:22.938Z,3.22
2022-08-17T17:55:34.629Z,3.60
2022-08-17T18:00:47.376Z,3.83
2022-08-17T18:06:05.539Z,3.50
2022-08-17T18:11:24.365Z,3.90
2022-08-17T18:16:32.152Z,3.92
2022-08-17T18:21:39.063Z,3.58
2022-08-17T18:26:50.492Z,3.17
2022-08-17T18:37:38.318Z,4.30
2022-08-17T18:42:41.201Z,4.35
2022-08-17T18:47:55.250Z,5.40
2022-08-17T18:53:21.348Z,3.40
2022-08-17T18:58:29.741Z,6.83
2022-08-17T19:03:32.641Z,9.68
2022-08-17T19:08:37.237Z,6.35
2022-08-17T19:13:45.151Z,8.93
2022-08-17T19:18:53.014Z,11.60
2022-08-17T19:24:04.825Z,14.85
2022-08-17T19:29:16.596Z,17.05
2022-08-17T19:34:33.248Z,16.02
2022-08-17T19:39:47.902Z,19.95
2022-08-17T19:45:01.695Z,18.85
2022-08-17T19:50:12.749Z,18.40
2022-08-17T19:55:26.540Z,22.55
2022-08-17T20:00:31.136Z,25.75
2022-08-17T20:06:01.047Z,28.20
2022-08-17T20:11:08.742Z,28.98
2022-08-17T20:16:12.318Z,27.20
2022-08-17T20:21:20.824Z,30.77
2022-08-17T20:26:29.279Z,29.23
2022-08-17T20:31:45.403Z,30.42
2022-08-17T20:37:00.415Z,33.63
2022-08-17T20:42:09.466Z,42.00
2022-08-17T20:47:21.784Z,37.28
2022-08-17T20:52:49.558Z,42.63
2022-08-17T20:57:53.941Z,37.83
2022-08-17T21:03:50.957Z,40.55
2022-08-17T21:08:58.902Z,39.78
2022-08-17T21:14:14.698Z,44.20
2022-08-17T21:19:44.386Z,45.90
2022-08-17T21:25:09.522Z,41.88
2022-08-17T21:30:22.581Z,46.70
2022-08-17T21:35:48.192Z,50.72
2022-08-17T21:40:55.129Z,45.67
2022-08-17T21:46:03.708Z,51.30
2022-08-17T21:51:12.083Z,53.03
2022-08-17T21:56:25.164Z,55.05
2022-08-17T22:01:31.669Z,53.65
2022-08-17T22:06:38.041Z,52.30
2022-08-17T22:11:58.033Z,54.33
2022-08-17T22:17:17.925Z,61.08
2022-08-17T22:22:28.045Z,53.22
2022-08-17T22:27:49.070Z,64.72
2022-08-17T22:32:53.318Z,67.70
2022-08-17T22:37:56.366Z,66.63
2022-08-17T22:43:01.532Z,75.55
2022-08-17T22:48:06.296Z,79.00
2022-08-17T22:53:41.732Z,79.35
2022-08-17T22:59:07.890Z,77.75
2022-08-17T23:04:16.052Z,77.90
2022-08-17T23:09:18.830Z,72.30
2022-08-17T23:14:22.458Z,68.50
2022-08-17T23:19:27.426Z,66.80
2022-08-17T23:24:35.566Z,62.85
2022-08-17T23:29:41.986Z,63.30
2022-08-17T23:34:48.021Z,62.25
2022-08-17T23:39:50.966Z,53.28
2022-08-17T23:44:53.843Z,53.55
2022-08-17T23:49:57.999Z,51.35
2022-08-17T23:55:06.368Z,47.03
